createdAt,value
2022-12-24T00:00:14.821Z,0.30
2022-12-24T00:01:14.704Z,0.30
2022-12-24T00:02:14.793Z,0.30
2022-12-24T00:03:14.788Z,0.60
2022-12-24T00:04:14.733Z,0.40
2022-12-24T00:05:14.660Z,0.40
2022-12-24T00:06:14.648Z,0.30
2022-12-24T00:07:14.640Z,0.30
2022-12-24T00:08:14.629Z,0.70
2022-12-24T00:09:14.624Z,1.60
2022-12-24T00:10:14.635Z,1.60
2022-12-24T00:11:14.602Z,0.30
2022-12-24T00:12:14.586Z,0.90
2022-12-24T00:13:14.585Z,0.40
2022-12-24T00:14:14.586Z,0.50
2022-12-24T00:15:14.550Z,0.30
2022-12-24T00:16:14.668Z,0.30
2022-12-24T00:17:14.554Z,0.40
2022-12-24T00:18:14.533Z,0.30
2022-12-24T00:19:14.518Z,0.30
2022-12-24T00:20:14.520Z,0.20
2022-12-24T00:21:14.496Z,0.40
2022-12-24T00:22:14.515Z,1.20
2022-12-24T00:23:14.470Z,1.40
2022-12-24T00:24:14.454Z,0.60
2022-12-24T00:25:14.441Z,0.90
2022-12-24T00:26:14.466Z,0.80
2022-12-24T00:27:14.428Z,1.20
2022-12-24T00:28:14.448Z,0.60
2022-12-24T00:29:14.402Z,0.50
2022-12-24T00:30:14.405Z,0.70
2022-12-24T00:31:14.557Z,0.30
2022-12-24T00:32:14.384Z,0.40
2022-12-24T00:33:17.128Z,0.30
2022-12-24T00:34:15.366Z,0.40
2022-12-24T00:35:14.338Z,0.40
2022-12-24T00:36:14.357Z,0.40
2022-12-24T00:37:14.330Z,0.30
2022-12-24T00:38:14.310Z,0.80
2022-12-24T00:39:14.310Z,0.20
2022-12-24T00:40:14.366Z,0.30
2022-12-24T00:41:14.268Z,0.30
2022-12-24T00:42:14.263Z,0.30
2022-12-24T00:43:14.247Z,0.30
2022-12-24T00:44:14.244Z,0.60
2022-12-24T00:45:14.248Z,0.30
2022-12-24T00:46:14.367Z,0.30
2022-12-24T00:47:14.207Z,0.70
2022-12-24T00:48:14.237Z,0.30
2022-12-24T00:49:14.211Z,0.40
2022-12-24T00:50:14.175Z,0.50
2022-12-24T00:51:14.206Z,0.40
2022-12-24T00:52:14.210Z,0.30
2022-12-24T00:53:14.159Z,0.30
2022-12-24T00:54:14.135Z,0.60
2022-12-24T00:55:14.195Z,0.60
2022-12-24T00:56:14.112Z,0.30
2022-12-24T00:57:14.095Z,0.40
2022-12-24T00:58:14.139Z,0.50
2022-12-24T00:59:14.082Z,0.60
2022-12-24T01:00:14.073Z,0.60
2022-12-24T01:01:14.176Z,0.40
2022-12-24T01:02:14.238Z,0.40
2022-12-24T01:03:14.165Z,0.40
2022-12-24T01:04:14.075Z,0.40
2022-12-24T01:05:14.019Z,0.40
2022-12-24T01:06:14.007Z,0.40
2022-12-24T01:07:14.003Z,0.50
2022-12-24T01:08:14.000Z,1.40
2022-12-24T01:09:13.979Z,0.30
2022-12-24T01:10:13.989Z,0.40
2022-12-24T01:11:13.961Z,0.60
2022-12-24T01:12:13.939Z,0.60
2022-12-24T01:13:13.946Z,0.40
2022-12-24T01:14:13.920Z,0.40
2022-12-24T01:15:13.903Z,0.30
2022-12-24T01:16:13.978Z,0.30
2022-12-24T01:17:13.883Z,0.40
2022-12-24T01:18:13.879Z,0.30
2022-12-24T01:19:13.964Z,0.40
2022-12-24T01:20:13.855Z,0.30
2022-12-24T01:21:13.848Z,0.30
2022-12-24T01:22:13.866Z,0.60
2022-12-24T01:23:13.821Z,1.00
2022-12-24T01:24:13.831Z,0.80
2022-12-24T01:25:13.813Z,4.10
2022-12-24T01:26:13.818Z,3.20
2022-12-24T01:27:13.787Z,0.80
2022-12-24T01:28:13.812Z,1.20
2022-12-24T01:29:13.752Z,3.00
2022-12-24T01:30:13.749Z,2.70
2022-12-24T01:31:13.819Z,0.70
2022-12-24T01:32:13.724Z,0.80
2022-12-24T01:33:13.723Z,10.60
2022-12-24T01:34:13.730Z,0.90
2022-12-24T01:35:13.690Z,0.90
2022-12-24T01:36:13.688Z,0.50
2022-12-24T01:37:13.773Z,0.50
2022-12-24T01:38:13.675Z,0.50
2022-12-24T01:39:13.648Z,0.50
2022-12-24T01:40:13.677Z,0.40
2022-12-24T01:41:13.625Z,0.40
2022-12-24T01:42:13.616Z,0.80
2022-12-24T01:43:13.616Z,0.50
2022-12-24T01:44:13.596Z,0.80
2022-12-24T01:45:13.611Z,0.50
2022-12-24T01:46:13.603Z,2.60
2022-12-24T01:47:13.561Z,2.80
2022-12-24T01:48:13.556Z,2.90
2022-12-24T01:49:13.554Z,3.20
2022-12-24T01:50:13.556Z,2.60
2022-12-24T01:51:13.516Z,3.00
2022-12-24T01:52:13.555Z,2.50
2022-12-24T01:53:13.523Z,1.50
2022-12-24T01:54:13.488Z,2.10
2022-12-24T01:55:13.480Z,1.90
2022-12-24T01:56:13.491Z,2.20
2022-12-24T01:57:13.454Z,2.30
2022-12-24T01:58:13.473Z,2.00
2022-12-24T01:59:13.454Z,1.60
2022-12-24T02:00:13.427Z,1.40
2022-12-24T02:01:13.583Z,1.60
2022-12-24T02:02:13.562Z,1.40
2022-12-24T02:03:13.498Z,1.10
2022-12-24T02:04:13.454Z,1.10
2022-12-24T02:05:13.386Z,0.90
2022-12-24T02:06:13.370Z,0.70
2022-12-24T02:07:13.360Z,0.40
2022-12-24T02:08:13.338Z,0.60
2022-12-24T02:09:13.347Z,0.40
2022-12-24T02:10:13.355Z,0.50
2022-12-24T02:11:13.310Z,0.30
2022-12-24T02:12:13.314Z,0.60
2022-12-24T02:13:13.294Z,0.70
2022-12-24T02:14:13.274Z,0.30
2022-12-24T02:15:13.264Z,0.60
2022-12-24T02:16:13.328Z,1.10
2022-12-24T02:17:13.237Z,0.30
2022-12-24T02:18:13.232Z,1.10
2022-12-24T02:19:13.321Z,0.40
2022-12-24T02:20:13.207Z,0.80
2022-12-24T02:21:13.196Z,0.40
2022-12-24T02:22:13.219Z,0.40
2022-12-24T02:23:13.171Z,0.40
2022-12-24T02:24:13.164Z,0.60
2022-12-24T02:25:13.168Z,0.50
2022-12-24T02:26:13.143Z,0.50
2022-12-24T02:27:13.127Z,0.60
2022-12-24T02:28:13.174Z,0.40
2022-12-24T02:29:13.109Z,0.50
2022-12-24T02:30:13.097Z,1.20
2022-12-24T02:31:13.222Z,0.60
2022-12-24T02:32:13.087Z,0.80
2022-12-24T02:33:13.087Z,0.90
2022-12-24T02:34:13.079Z,0.60
2022-12-24T02:35:13.053Z,1.70
2022-12-24T02:36:13.046Z,0.60
2022-12-24T02:37:13.029Z,0.50
2022-12-24T02:38:13.017Z,1.10
2022-12-24T02:39:13.023Z,1.00
2022-12-24T02:40:16.517Z,1.00
2022-12-24T02:41:12.980Z,0.70
2022-12-24T02:42:12.965Z,1.20
2022-12-24T02:43:12.959Z,0.70
2022-12-24T02:44:12.965Z,0.90
2022-12-24T02:45:12.946Z,0.90
2022-12-24T02:46:13.040Z,0.80
2022-12-24T02:47:12.915Z,0.90
2022-12-24T02:48:12.902Z,1.00
2022-12-24T02:49:12.893Z,1.40
2022-12-24T02:50:12.916Z,1.00
2022-12-24T02:51:12.873Z,1.30
2022-12-24T02:52:12.909Z,0.80
2022-12-24T02:53:12.852Z,0.80
2022-12-24T02:54:12.836Z,0.60
2022-12-24T02:55:12.835Z,1.10
2022-12-24T02:56:12.825Z,1.20
2022-12-24T02:57:12.807Z,0.60
2022-12-24T02:58:12.825Z,0.70
2022-12-24T02:59:12.788Z,0.50
2022-12-24T03:00:12.812Z,0.40
2022-12-24T03:01:12.864Z,0.60
2022-12-24T03:02:12.868Z,0.40
2022-12-24T03:03:12.756Z,0.60
2022-12-24T03:04:12.766Z,0.40
2022-12-24T03:05:12.752Z,0.30
2022-12-24T03:06:12.717Z,0.30
2022-12-24T03:07:12.713Z,1.30
2022-12-24T03:08:12.689Z,0.60
2022-12-24T03:09:12.693Z,0.70
2022-12-24T03:10:12.727Z,0.40
2022-12-24T03:11:12.664Z,0.40
2022-12-24T03:12:12.658Z,0.40
2022-12-24T03:13:12.647Z,0.30
2022-12-24T03:14:12.625Z,0.70
2022-12-24T03:15:12.623Z,0.30
2022-12-24T03:16:12.706Z,0.30
2022-12-24T03:17:12.591Z,0.30
2022-12-24T03:18:12.596Z,0.40
2022-12-24T03:19:12.574Z,0.30
2022-12-24T03:20:12.561Z,0.40
2022-12-24T03:21:12.552Z,0.40
2022-12-24T03:22:12.563Z,0.80
2022-12-24T03:23:12.529Z,0.30
2022-12-24T03:24:12.528Z,0.20
2022-12-24T03:25:12.508Z,0.70
2022-12-24T03:26:12.493Z,0.40
2022-12-24T03:27:12.485Z,0.20
2022-12-24T03:28:12.536Z,0.50
2022-12-24T03:29:12.462Z,0.60
2022-12-24T03:30:12.447Z,0.30
2022-12-24T03:31:12.526Z,0.20
2022-12-24T03:32:12.446Z,0.30
2022-12-24T03:33:12.433Z,1.30
2022-12-24T03:34:12.452Z,1.00
2022-12-24T03:35:12.451Z,4.50
2022-12-24T03:36:12.382Z,0.40
2022-12-24T03:37:12.382Z,0.70
2022-12-24T03:38:12.360Z,0.30
2022-12-24T03:39:12.365Z,0.40
2022-12-24T03:40:12.366Z,0.30
2022-12-24T03:41:12.336Z,0.30
2022-12-24T03:42:12.316Z,0.30
2022-12-24T03:43:12.311Z,0.20
2022-12-24T03:44:12.300Z,0.30
2022-12-24T03:45:12.301Z,0.30
2022-12-24T03:46:12.416Z,0.30
2022-12-24T03:47:12.270Z,0.40
2022-12-24T03:48:12.275Z,0.30
2022-12-24T03:49:12.246Z,0.30
2022-12-24T03:50:12.243Z,0.30
2022-12-24T03:51:12.228Z,0.30
2022-12-24T03:52:12.245Z,0.40
2022-12-24T03:53:12.222Z,0.30
2022-12-24T03:54:12.219Z,0.30
2022-12-24T03:55:12.188Z,0.20
2022-12-24T03:56:12.181Z,0.20
2022-12-24T03:57:12.181Z,0.30
2022-12-24T03:58:12.183Z,0.30
2022-12-24T03:59:12.152Z,0.40
2022-12-24T04:00:12.123Z,0.40
2022-12-24T04:01:12.269Z,0.90
2022-12-24T04:02:12.349Z,0.40
2022-12-24T04:03:12.141Z,0.40
2022-12-24T04:04:12.110Z,0.40
2022-12-24T04:05:12.087Z,0.40
2022-12-24T04:06:12.062Z,0.50
2022-12-24T04:07:12.056Z,0.90
2022-12-24T04:08:12.036Z,0.30
2022-12-24T04:09:12.029Z,0.20
2022-12-24T04:10:12.042Z,0.20
2022-12-24T04:11:12.021Z,0.30
2022-12-24T04:12:11.995Z,0.30
2022-12-24T04:13:12.014Z,0.30
2022-12-24T04:14:11.983Z,0.30
2022-12-24T04:15:11.974Z,0.30
2022-12-24T04:16:12.042Z,0.40
2022-12-24T04:17:11.945Z,0.30
2022-12-24T04:18:11.934Z,0.30
2022-12-24T04:19:11.942Z,0.30
2022-12-24T04:20:11.940Z,0.30
2022-12-24T04:21:11.953Z,0.30
2022-12-24T04:22:11.884Z,0.70
2022-12-24T04:23:11.877Z,0.30
2022-12-24T04:24:11.886Z,0.20
2022-12-24T04:25:11.868Z,0.30
2022-12-24T04:26:11.841Z,0.30
2022-12-24T04:27:11.867Z,0.30
2022-12-24T04:28:11.829Z,0.30
2022-12-24T04:29:11.813Z,0.20
2022-12-24T04:30:11.801Z,0.30
2022-12-24T04:31:11.791Z,0.50
2022-12-24T04:32:11.859Z,0.30
2022-12-24T04:33:11.816Z,0.40
2022-12-24T04:34:11.754Z,0.40
2022-12-24T04:35:11.746Z,0.40
2022-12-24T04:36:11.752Z,0.40
2022-12-24T04:37:11.725Z,0.60
2022-12-24T04:38:11.740Z,1.20
2022-12-24T04:39:11.738Z,0.30
2022-12-24T04:40:11.689Z,0.40
2022-12-24T04:41:14.746Z,0.40
2022-12-24T04:42:12.671Z,0.30
2022-12-24T04:43:11.665Z,0.40
2022-12-24T04:44:11.757Z,163.20
2022-12-24T04:45:11.662Z,18.30
2022-12-24T04:46:11.704Z,4.00
2022-12-24T04:47:11.618Z,20.60
2022-12-24T04:48:11.618Z,7.10
2022-12-24T04:49:11.597Z,0.50
2022-12-24T04:50:11.595Z,0.40
2022-12-24T04:51:11.608Z,0.50
2022-12-24T04:52:11.599Z,0.50
2022-12-24T04:53:11.554Z,0.40
2022-12-24T04:54:11.537Z,0.30
2022-12-24T04:55:11.541Z,0.40
2022-12-24T04:56:11.528Z,0.30
2022-12-24T04:57:11.564Z,0.40
2022-12-24T04:58:11.507Z,0.40
2022-12-24T04:59:11.487Z,0.30
2022-12-24T05:00:11.473Z,0.40
2022-12-24T05:01:11.531Z,0.40
2022-12-24T05:02:11.702Z,0.40
2022-12-24T05:03:11.590Z,0.50
2022-12-24T05:04:11.441Z,0.70
2022-12-24T05:05:11.427Z,0.50
2022-12-24T05:06:11.406Z,0.60
2022-12-24T05:07:11.399Z,0.50
2022-12-24T05:08:11.416Z,0.50
2022-12-24T05:09:11.377Z,0.50
2022-12-24T05:10:11.524Z,0.50
2022-12-24T05:11:11.357Z,0.50
2022-12-24T05:12:11.349Z,0.50
2022-12-24T05:13:11.340Z,0.60
2022-12-24T05:14:11.330Z,0.80
2022-12-24T05:15:11.311Z,0.50
2022-12-24T05:16:11.378Z,0.60
2022-12-24T05:17:11.347Z,0.70
2022-12-24T05:18:11.283Z,0.60
2022-12-24T05:19:11.321Z,0.70
2022-12-24T05:20:11.279Z,1.00
2022-12-24T05:21:11.260Z,0.50
2022-12-24T05:22:11.281Z,0.60
2022-12-24T05:23:11.225Z,0.60
2022-12-24T05:24:11.255Z,0.60
2022-12-24T05:25:11.200Z,1.30
2022-12-24T05:26:11.195Z,2.80
2022-12-24T05:27:11.183Z,1.50
2022-12-24T05:28:11.197Z,0.70
2022-12-24T05:29:11.160Z,0.50
2022-12-24T05:30:11.261Z,0.40
2022-12-24T05:31:11.243Z,0.50
2022-12-24T05:32:11.135Z,0.50
2022-12-24T05:33:11.121Z,1.00
2022-12-24T05:34:11.143Z,0.40
2022-12-24T05:35:11.115Z,0.50
2022-12-24T05:36:11.110Z,0.50
2022-12-24T05:37:11.088Z,1.00
2022-12-24T05:38:11.074Z,0.50
2022-12-24T05:39:15.433Z,0.50
2022-12-24T05:40:12.075Z,0.80
2022-12-24T05:41:11.029Z,0.40
2022-12-24T05:42:11.041Z,0.50
2022-12-24T05:43:11.009Z,0.60
2022-12-24T05:44:11.014Z,0.40
2022-12-24T05:45:11.028Z,0.40
2022-12-24T05:46:11.082Z,0.30
2022-12-24T05:47:10.986Z,0.30
2022-12-24T05:48:10.984Z,0.30
2022-12-24T05:49:10.968Z,0.30
2022-12-24T05:50:10.945Z,0.50
2022-12-24T05:51:10.965Z,0.30
2022-12-24T05:52:10.930Z,0.30
2022-12-24T05:53:11.005Z,0.30
2022-12-24T05:54:10.897Z,0.30
2022-12-24T05:55:10.918Z,0.30
2022-12-24T05:56:10.896Z,0.20
2022-12-24T05:57:10.860Z,0.30
2022-12-24T05:58:10.853Z,0.30
2022-12-24T05:59:10.851Z,0.60
2022-12-24T06:00:10.826Z,0.30
2022-12-24T06:01:10.890Z,0.30
2022-12-24T06:02:10.896Z,0.20
2022-12-24T06:03:10.796Z,0.20
2022-12-24T06:04:10.832Z,0.30
2022-12-24T06:05:10.871Z,0.30
2022-12-24T06:06:10.772Z,0.40
2022-12-24T06:07:10.772Z,0.40
2022-12-24T06:08:10.744Z,26.00
2022-12-24T06:09:10.729Z,3.20
2022-12-24T06:10:10.735Z,253.80
2022-12-24T06:11:10.721Z,110.20
2022-12-24T06:12:10.753Z,4.20
2022-12-24T06:13:10.731Z,0.80
2022-12-24T06:14:10.678Z,1.10
2022-12-24T06:15:10.697Z,0.90
2022-12-24T06:16:10.727Z,1.10
2022-12-24T06:17:10.669Z,1.30
2022-12-24T06:18:10.641Z,1.40
2022-12-24T06:19:10.655Z,12.80
2022-12-24T06:20:10.614Z,1.50
2022-12-24T06:21:10.613Z,40.70
2022-12-24T06:22:10.595Z,203.00
2022-12-24T06:23:10.598Z,79.20
2022-12-24T06:24:10.574Z,232.60
2022-12-24T06:25:10.607Z,436.90
2022-12-24T06:26:10.547Z,116.10
2022-12-24T06:27:10.551Z,143.10
2022-12-24T06:28:10.557Z,363.40
2022-12-24T06:29:10.513Z,242.30
2022-12-24T06:30:10.503Z,362.80
2022-12-24T06:31:10.559Z,203.30
2022-12-24T06:32:10.495Z,114.80
2022-12-24T06:33:10.472Z,3.30
2022-12-24T06:34:10.473Z,1.90
2022-12-24T06:35:10.452Z,2.00
2022-12-24T06:36:16.621Z,1.50
2022-12-24T06:37:11.460Z,1.30
2022-12-24T06:38:10.418Z,1.10
2022-12-24T06:39:10.415Z,1.20
2022-12-24T06:40:10.401Z,1.20
2022-12-24T06:41:10.390Z,1.20
2022-12-24T06:42:10.389Z,1.30
2022-12-24T06:43:10.389Z,1.40
2022-12-24T06:44:10.371Z,2.30
2022-12-24T06:45:10.345Z,1.60
2022-12-24T06:46:10.354Z,0.90
2022-12-24T06:47:10.338Z,0.90
2022-12-24T06:48:10.308Z,0.70
2022-12-24T06:49:10.328Z,0.90
2022-12-24T06:50:10.296Z,0.80
2022-12-24T06:51:10.291Z,1.10
2022-12-24T06:52:10.295Z,0.80
2022-12-24T06:53:10.456Z,1.20
2022-12-24T06:54:10.246Z,1.10
2022-12-24T06:55:10.276Z,0.90
2022-12-24T06:56:10.222Z,1.10
2022-12-24T06:57:10.213Z,1.00
2022-12-24T06:58:10.220Z,1.20
2022-12-24T06:59:10.215Z,0.90
2022-12-24T07:00:10.196Z,0.90
2022-12-24T07:01:10.238Z,1.10
2022-12-24T07:02:10.358Z,3.20
2022-12-24T07:03:10.162Z,7.60
2022-12-24T07:04:14.546Z,6.80
2022-12-24T07:05:11.140Z,1.00
2022-12-24T07:06:10.115Z,2.50
2022-12-24T07:07:10.155Z,3.60
2022-12-24T07:08:10.095Z,2.40
2022-12-24T07:09:10.096Z,1.20
2022-12-24T07:10:10.093Z,1.00
2022-12-24T07:11:10.063Z,1.20
2022-12-24T07:12:10.055Z,1.40
2022-12-24T07:13:10.094Z,1.20
2022-12-24T07:14:10.036Z,1.20
2022-12-24T07:15:10.021Z,1.40
2022-12-24T07:16:10.223Z,1.40
2022-12-24T07:17:10.165Z,1.50
2022-12-24T07:18:09.987Z,1.90
2022-12-24T07:19:10.019Z,1.50
2022-12-24T07:20:09.965Z,1.30
2022-12-24T07:21:09.956Z,1.40
2022-12-24T07:22:15.241Z,1.50
2022-12-24T07:23:10.935Z,1.60
2022-12-24T07:24:09.921Z,1.30
2022-12-24T07:25:09.945Z,1.90
2022-12-24T07:26:09.906Z,1.70
2022-12-24T07:27:09.908Z,2.00
2022-12-24T07:28:09.881Z,2.50
2022-12-24T07:29:09.872Z,2.70
2022-12-24T07:30:09.855Z,1.70
2022-12-24T07:31:09.956Z,1.20
2022-12-24T07:32:09.853Z,1.10
2022-12-24T07:33:09.847Z,0.80
2022-12-24T07:34:09.815Z,0.80
2022-12-24T07:35:09.813Z,0.80
2022-12-24T07:36:09.796Z,0.70
2022-12-24T07:37:09.807Z,0.50
2022-12-24T07:38:09.769Z,0.50
2022-12-24T07:39:09.773Z,0.90
2022-12-24T07:40:09.757Z,0.50
2022-12-24T07:41:09.745Z,0.50
2022-12-24T07:42:09.727Z,0.50
2022-12-24T07:43:09.749Z,7.20
2022-12-24T07:44:09.717Z,135.60
2022-12-24T07:45:09.709Z,1.70
2022-12-24T07:46:09.714Z,0.70
2022-12-24T07:47:09.699Z,0.70
2022-12-24T07:48:09.683Z,240.80
2022-12-24T07:49:09.686Z,1.10
2022-12-24T07:50:09.645Z,1.70
2022-12-24T07:51:09.652Z,2.20
2022-12-24T07:52:09.619Z,1.50
2022-12-24T07:53:09.634Z,1.70
2022-12-24T07:54:09.622Z,2.60
2022-12-24T07:55:09.642Z,2.30
2022-12-24T07:56:12.876Z,2.00
2022-12-24T07:57:09.581Z,1.40
2022-12-24T07:58:09.560Z,1.50
2022-12-24T07:59:09.548Z,1.20
2022-12-24T08:00:09.550Z,1.40
2022-12-24T08:01:09.631Z,1.90
2022-12-24T08:02:15.806Z,11.90
2022-12-24T08:03:10.688Z,25.40
2022-12-24T08:04:09.634Z,22.60
2022-12-24T08:05:09.491Z,7.20
2022-12-24T08:06:09.469Z,5.20
2022-12-24T08:07:09.518Z,2.80
2022-12-24T08:08:09.485Z,3.00
2022-12-24T08:09:09.441Z,4.50
2022-12-24T08:10:09.437Z,3.70
2022-12-24T08:11:09.431Z,2.30
2022-12-24T08:12:09.427Z,2.40
2022-12-24T08:13:09.430Z,3.10
2022-12-24T08:14:09.386Z,3.70
2022-12-24T08:15:09.379Z,4.00
2022-12-24T08:16:09.433Z,3.60
2022-12-24T08:17:09.360Z,64.30
2022-12-24T08:18:09.340Z,25.40
2022-12-24T08:19:09.381Z,79.60
2022-12-24T08:20:09.339Z,85.90
2022-12-24T08:21:09.320Z,46.90
2022-12-24T08:22:09.310Z,22.20
2022-12-24T08:23:09.296Z,27.40
2022-12-24T08:24:09.275Z,1.50
2022-12-24T08:25:09.286Z,1.90
2022-12-24T08:26:09.261Z,18.80
2022-12-24T08:27:09.252Z,4.30
2022-12-24T08:28:09.340Z,1.30
2022-12-24T08:29:09.223Z,4.20
2022-12-24T08:30:09.213Z,253.20
2022-12-24T08:31:09.307Z,91.80
2022-12-24T08:32:09.238Z,85.90
2022-12-24T08:33:09.183Z,2.20
2022-12-24T08:34:09.180Z,5.00
2022-12-24T08:35:09.158Z,5.40
2022-12-24T08:36:09.167Z,43.80
2022-12-24T08:37:09.176Z,177.30
2022-12-24T08:38:09.125Z,42.80
2022-12-24T08:39:09.142Z,40.20
2022-12-24T08:40:09.119Z,81.90
2022-12-24T08:41:09.094Z,171.60
2022-12-24T08:42:09.116Z,18.10
2022-12-24T08:43:09.094Z,4.10
2022-12-24T08:44:09.116Z,147.00
2022-12-24T08:45:09.050Z,205.90
2022-12-24T08:46:09.077Z,390.70
2022-12-24T08:47:09.030Z,432.10
2022-12-24T08:48:09.019Z,356.20
2022-12-24T08:49:09.008Z,413.50
2022-12-24T08:50:09.039Z,442.30
2022-12-24T08:51:08.985Z,341.30
2022-12-24T08:52:08.996Z,323.00
2022-12-24T08:53:08.970Z,262.90
2022-12-24T08:54:08.951Z,267.70
2022-12-24T08:55:08.947Z,264.80
2022-12-24T08:56:08.987Z,271.60
2022-12-24T08:57:08.921Z,286.30
2022-12-24T08:58:08.913Z,326.30
2022-12-24T08:59:08.920Z,244.10
2022-12-24T09:00:08.889Z,233.60
2022-12-24T09:01:09.054Z,237.80
2022-12-24T09:02:09.028Z,108.60
2022-12-24T09:03:08.896Z,3.00
2022-12-24T09:04:08.842Z,3.20
2022-12-24T09:05:08.846Z,4.30
2022-12-24T09:06:08.824Z,3.50
2022-12-24T09:07:08.818Z,3.30
2022-12-24T09:08:08.858Z,3.10
2022-12-24T09:09:08.809Z,2.60
2022-12-24T09:10:08.779Z,2.90
2022-12-24T09:11:08.794Z,4.70
2022-12-24T09:12:08.755Z,32.20
2022-12-24T09:13:08.754Z,20.50
2022-12-24T09:14:08.773Z,11.10
2022-12-24T09:15:08.746Z,15.70
2022-12-24T09:16:08.804Z,233.00
2022-12-24T09:17:08.765Z,414.60
2022-12-24T09:18:08.691Z,613.00
2022-12-24T09:19:08.689Z,498.20
2022-12-24T09:20:08.789Z,680.90
2022-12-24T09:21:08.674Z,676.50
2022-12-24T09:22:08.648Z,658.20
2022-12-24T09:23:08.642Z,482.50
2022-12-24T09:24:08.643Z,508.30
2022-12-24T09:25:08.631Z,470.90
2022-12-24T09:26:08.665Z,449.50
2022-12-24T09:27:08.600Z,493.90
2022-12-24T09:28:08.582Z,383.30
2022-12-24T09:29:08.576Z,313.60
2022-12-24T09:30:08.561Z,322.20
2022-12-24T09:31:08.557Z,331.20
2022-12-24T09:32:08.696Z,427.20
2022-12-24T09:33:08.537Z,301.30
2022-12-24T09:34:08.527Z,349.50
2022-12-24T09:35:08.511Z,361.90
2022-12-24T09:36:08.520Z,503.00
2022-12-24T09:37:08.489Z,446.50
2022-12-24T09:38:08.511Z,392.50
2022-12-24T09:39:08.477Z,380.40
2022-12-24T09:40:08.481Z,198.80
2022-12-24T09:41:09.099Z,292.20
2022-12-24T09:42:08.442Z,285.80
2022-12-24T09:43:08.426Z,147.00
2022-12-24T09:44:08.470Z,158.80
2022-12-24T09:45:08.459Z,245.80
2022-12-24T09:46:08.542Z,172.00
2022-12-24T09:47:10.261Z,90.10
2022-12-24T09:48:08.384Z,82.50
2022-12-24T09:49:08.359Z,29.10
2022-12-24T09:50:08.414Z,4.70
2022-12-24T09:51:08.343Z,2.70
2022-12-24T09:52:08.324Z,7.40
2022-12-24T09:53:08.317Z,141.10
2022-12-24T09:54:08.301Z,5.30
2022-12-24T09:55:08.311Z,93.10
2022-12-24T09:56:08.339Z,79.90
2022-12-24T09:57:08.275Z,84.80
2022-12-24T09:58:08.260Z,6.70
2022-12-24T09:59:08.261Z,149.40
2022-12-24T10:00:08.239Z,30.80
2022-12-24T10:01:08.292Z,96.40
2022-12-24T10:02:08.438Z,117.90
2022-12-24T10:03:08.221Z,130.90
2022-12-24T10:04:08.198Z,76.90
2022-12-24T10:05:08.190Z,50.10
2022-12-24T10:06:08.177Z,22.10
2022-12-24T10:07:08.169Z,3.30
2022-12-24T10:08:08.292Z,3.50
2022-12-24T10:09:08.141Z,3.50
2022-12-24T10:10:08.130Z,2.70
2022-12-24T10:11:08.131Z,150.60
2022-12-24T10:12:08.141Z,224.30
2022-12-24T10:13:08.099Z,184.10
2022-12-24T10:14:08.131Z,154.50
2022-12-24T10:15:08.079Z,196.80
2022-12-24T10:16:08.066Z,234.30
2022-12-24T10:17:08.173Z,232.10
2022-12-24T10:18:08.079Z,229.90
2022-12-24T10:19:08.038Z,250.20
2022-12-24T10:20:08.069Z,252.10
2022-12-24T10:21:08.013Z,262.20
2022-12-24T10:22:08.009Z,281.90
2022-12-24T10:23:07.990Z,313.40
2022-12-24T10:24:08.000Z,264.20
2022-12-24T10:25:07.982Z,221.90
2022-12-24T10:26:07.975Z,245.60
2022-12-24T10:27:07.953Z,306.40
2022-12-24T10:28:07.954Z,271.80
2022-12-24T10:29:07.928Z,302.90
2022-12-24T10:30:13.289Z,303.70
2022-12-24T10:31:09.004Z,223.90
2022-12-24T10:32:07.932Z,141.60
2022-12-24T10:33:07.891Z,142.10
2022-12-24T10:34:07.888Z,298.00
2022-12-24T10:35:07.881Z,341.10
2022-12-24T10:36:12.035Z,256.70
2022-12-24T10:37:07.844Z,230.20
2022-12-24T10:38:07.860Z,366.80
2022-12-24T10:39:07.820Z,316.80
2022-12-24T10:40:07.819Z,341.50
2022-12-24T10:41:07.814Z,311.90
2022-12-24T10:42:07.799Z,271.90
2022-12-24T10:43:07.776Z,7.90
2022-12-24T10:44:07.801Z,1.70
2022-12-24T10:45:07.770Z,1.90
2022-12-24T10:46:07.792Z,51.90
2022-12-24T10:47:07.734Z,2.80
2022-12-24T10:48:07.724Z,1.80
2022-12-24T10:49:07.718Z,1.30
2022-12-24T10:50:07.748Z,1.00
2022-12-24T10:51:07.708Z,0.80
2022-12-24T10:52:07.689Z,1.30
2022-12-24T10:53:07.682Z,0.90
2022-12-24T10:54:07.668Z,1.00
2022-12-24T10:55:07.652Z,171.90
2022-12-24T10:56:07.662Z,221.40
2022-12-24T10:57:07.630Z,17.80
2022-12-24T10:58:07.612Z,0.80
2022-12-24T10:59:07.602Z,0.70
2022-12-24T11:00:07.626Z,0.70
2022-12-24T11:01:07.865Z,0.50
2022-12-24T11:02:07.858Z,0.60
2022-12-24T11:03:07.673Z,0.50
2022-12-24T11:04:07.547Z,0.70
2022-12-24T11:05:07.558Z,48.30
2022-12-24T11:06:07.537Z,0.60
2022-12-24T11:07:07.557Z,0.70
2022-12-24T11:08:07.548Z,5.90
2022-12-24T11:09:07.492Z,4.00
2022-12-24T11:10:07.499Z,27.60
2022-12-24T11:11:07.488Z,2.10
2022-12-24T11:12:09.685Z,187.20
2022-12-24T11:13:36.077Z,132.30
2022-12-24T11:14:08.470Z,10.60
2022-12-24T11:15:07.442Z,1.00
2022-12-24T11:16:07.539Z,114.00
2022-12-24T11:17:07.404Z,176.30
2022-12-24T11:18:07.396Z,60.90
2022-12-24T11:19:07.786Z,105.40
2022-12-24T11:20:07.410Z,28.20
2022-12-24T11:21:07.363Z,60.90
2022-12-24T11:22:07.355Z,19.30
2022-12-24T11:23:07.343Z,9.10
2022-12-24T11:24:07.342Z,25.00
2022-12-24T11:25:07.344Z,29.20
2022-12-24T11:26:07.332Z,13.40
2022-12-24T11:27:07.297Z,5.60
2022-12-24T11:28:07.289Z,2.90
2022-12-24T11:29:07.288Z,19.90
2022-12-24T11:30:11.710Z,25.60
2022-12-24T11:31:07.309Z,16.00
2022-12-24T11:32:07.275Z,172.50
2022-12-24T11:33:07.269Z,8.00
2022-12-24T11:34:07.222Z,97.70
2022-12-24T11:35:07.218Z,176.30
2022-12-24T11:36:07.211Z,277.10
2022-12-24T11:37:13.882Z,174.10
2022-12-24T11:38:08.247Z,52.20
2022-12-24T11:39:07.165Z,116.00
2022-12-24T11:40:07.161Z,122.30
2022-12-24T11:41:07.178Z,86.30
2022-12-24T11:42:07.161Z,2.80
2022-12-24T11:43:12.817Z,2.00
2022-12-24T11:44:08.151Z,6.30
2022-12-24T11:45:07.130Z,5.20
2022-12-24T11:46:07.131Z,42.10
2022-12-24T11:47:07.076Z,20.20
2022-12-24T11:48:07.090Z,304.40
2022-12-24T11:49:08.283Z,226.00
2022-12-24T11:50:18.022Z,29.00
2022-12-24T11:51:08.085Z,117.90
2022-12-24T11:52:07.030Z,135.40
2022-12-24T11:53:07.014Z,41.60
2022-12-24T11:54:07.013Z,197.50
2022-12-24T11:55:13.712Z,154.70
2022-12-24T11:56:08.020Z,181.70
2022-12-24T11:57:06.984Z,96.70
2022-12-24T11:58:06.965Z,203.70
2022-12-24T11:59:06.953Z,196.10
2022-12-24T12:00:06.943Z,60.10
2022-12-24T12:01:11.809Z,42.70
2022-12-24T12:02:08.042Z,6.70
2022-12-24T12:03:06.944Z,3.90
2022-12-24T12:04:06.937Z,2.00
2022-12-24T12:05:06.885Z,1.80
2022-12-24T12:06:06.878Z,2.10
2022-12-24T12:07:12.850Z,1.40
2022-12-24T12:08:07.879Z,1.70
2022-12-24T12:09:06.841Z,1.30
2022-12-24T12:10:06.837Z,1.70
2022-12-24T12:11:06.849Z,2.50
2022-12-24T12:12:06.835Z,16.10
2022-12-24T12:13:12.850Z,8.50
2022-12-24T12:14:07.817Z,34.30
2022-12-24T12:15:06.782Z,49.00
2022-12-24T12:16:06.887Z,173.70
2022-12-24T12:17:06.764Z,151.30
2022-12-24T12:18:06.767Z,235.70
2022-12-24T12:19:13.164Z,90.20
2022-12-24T12:20:07.757Z,211.90
2022-12-24T12:21:06.729Z,119.90
2022-12-24T12:22:06.711Z,9.80
2022-12-24T12:23:06.715Z,144.60
2022-12-24T12:24:06.686Z,26.80
2022-12-24T12:25:06.686Z,20.80
2022-12-24T12:26:06.693Z,2.10
2022-12-24T12:27:06.649Z,3.40
2022-12-24T12:28:06.638Z,74.00
2022-12-24T12:29:06.627Z,221.80
2022-12-24T12:30:06.620Z,384.30
2022-12-24T12:31:11.922Z,173.70
2022-12-24T12:32:07.711Z,333.60
2022-12-24T12:33:06.638Z,148.20
2022-12-24T12:34:06.575Z,273.20
2022-12-24T12:35:06.567Z,406.90
2022-12-24T12:36:06.585Z,81.50
2022-12-24T12:37:11.145Z,50.00
2022-12-24T12:38:07.574Z,2.30
2022-12-24T12:39:06.528Z,1.60
2022-12-24T12:40:06.514Z,1.40
2022-12-24T12:41:06.501Z,1.40
2022-12-24T12:42:06.490Z,3.00
2022-12-24T12:43:10.860Z,1.90
2022-12-24T12:44:07.511Z,1.70
2022-12-24T12:45:06.452Z,1.60
2022-12-24T12:46:06.454Z,2.20
2022-12-24T12:47:06.504Z,2.60
2022-12-24T12:48:06.443Z,4.00
2022-12-24T12:49:06.422Z,2.60
2022-12-24T12:50:06.440Z,2.50
2022-12-24T12:51:06.397Z,2.30
2022-12-24T12:52:06.411Z,1.30
2022-12-24T12:53:06.368Z,1.60
2022-12-24T12:54:06.361Z,1.40
2022-12-24T12:55:06.352Z,60.10
2022-12-24T12:56:06.362Z,15.10
2022-12-24T12:57:06.352Z,3.00
2022-12-24T12:58:06.332Z,0.90
2022-12-24T12:59:06.301Z,1.00
2022-12-24T13:00:06.292Z,1.00
2022-12-24T13:01:06.448Z,1.10
2022-12-24T13:02:06.515Z,2.30
2022-12-24T13:03:06.422Z,1.10
2022-12-24T13:04:06.262Z,1.10
2022-12-24T13:05:06.262Z,0.80
2022-12-24T13:06:06.248Z,0.80